createdAt,value
2018-02-16T00:01:59.172Z,3.10
2018-02-16T00:04:27.462Z,3.10
2018-02-16T00:06:55.209Z,3.10
2018-02-16T00:09:22.803Z,3.10
2018-02-16T00:11:50.344Z,3.10
2018-02-16T00:14:20.233Z,3.10
2018-02-16T00:16:48.830Z,3.20
2018-02-16T00:19:25.153Z,3.20
2018-02-16T00:21:54.689Z,3.30
2018-02-16T00:24:26.837Z,3.40
2018-02-16T00:26:55.416Z,3.40
2018-02-16T00:29:25.571Z,3.40
2018-02-16T00:31:55.139Z,3.40
2018-02-16T00:34:23.628Z,3.40
2018-02-16T00:36:51.217Z,3.40
2018-02-16T00:39:20.296Z,3.40
2018-02-16T00:41:48.748Z,3.40
2018-02-16T00:44:16.349Z,3.50
2018-02-16T00:46:44.032Z,3.50
2018-02-16T00:49:12.852Z,3.50
2018-02-16T00:51:40.601Z,3.50
2018-02-16T00:54:08.597Z,3.50
2018-02-16T00:56:37.979Z,3.50
2018-02-16T00:59:05.528Z,3.50
2018-02-16T01:01:33.702Z,3.50
2018-02-16T01:04:01.444Z,3.50
2018-02-16T01:06:29.151Z,3.50
2018-02-16T01:08:57.553Z,3.40
2018-02-16T01:11:26.633Z,3.40
2018-02-16T01:13:54.760Z,3.40
2018-02-16T01:16:22.716Z,3.40
2018-02-16T01:18:50.575Z,3.30
2018-02-16T01:21:18.861Z,3.30
2018-02-16T01:23:47.261Z,3.30
2018-02-16T01:26:17.429Z,3.20
2018-02-16T01:28:45.601Z,3.20
2018-02-16T01:31:13.813Z,3.10
2018-02-16T01:33:42.298Z,3.10
2018-02-16T01:36:13.375Z,3.10
2018-02-16T01:38:42.953Z,3.10
2018-02-16T01:41:11.972Z,3.10
2018-02-16T01:43:39.537Z,3.10
2018-02-16T01:46:07.920Z,3.10
2018-02-16T01:48:35.918Z,3.10
2018-02-16T01:51:04.849Z,3.10
2018-02-16T01:53:33.305Z,3.10
2018-02-16T01:56:00.925Z,3.10
2018-02-16T01:58:29.840Z,3.10
2018-02-16T02:00:57.488Z,3.10
2018-02-16T02:03:27.148Z,3.10
2018-02-16T02:05:57.444Z,3.10
2018-02-16T02:08:25.565Z,3.10
2018-02-16T02:10:53.150Z,3.10
2018-02-16T02:13:21.154Z,3.00
2018-02-16T02:15:51.748Z,3.00
2018-02-16T02:18:20.599Z,3.00
2018-02-16T02:20:49.998Z,3.00
2018-02-16T02:23:18.566Z,3.00
2018-02-16T02:25:46.939Z,3.00
2018-02-16T02:28:14.958Z,2.90
2018-02-16T02:30:44.783Z,2.80
2018-02-16T02:33:13.740Z,2.80
2018-02-16T02:35:42.222Z,2.70
2018-02-16T02:38:10.995Z,2.70
2018-02-16T02:40:38.682Z,2.60
2018-02-16T02:43:07.484Z,2.60
2018-02-16T02:45:35.405Z,2.60
2018-02-16T02:48:04.541Z,2.60
2018-02-16T02:50:32.292Z,2.50
2018-02-16T02:52:59.969Z,2.50
2018-02-16T02:55:28.390Z,2.50
2018-02-16T02:57:59.718Z,2.40
2018-02-16T03:00:27.494Z,2.30
2018-02-16T03:02:55.686Z,2.20
2018-02-16T03:05:23.286Z,2.20
2018-02-16T03:07:51.101Z,2.20
2018-02-16T03:10:18.852Z,2.20
2018-02-16T03:12:47.266Z,2.20
2018-02-16T03:15:15.809Z,2.30
2018-02-16T03:17:44.324Z,2.20
2018-02-16T03:20:13.031Z,2.20
2018-02-16T03:22:40.603Z,2.20
2018-02-16T03:25:08.651Z,2.10
2018-02-16T03:27:36.237Z,2.10
2018-02-16T03:30:04.970Z,2.00
2018-02-16T03:32:33.320Z,2.00
2018-02-16T03:35:02.012Z,2.00
2018-02-16T03:37:30.337Z,2.00
2018-02-16T03:39:58.095Z,2.00
2018-02-16T03:42:26.231Z,2.00
2018-02-16T03:44:55.054Z,2.00
2018-02-16T03:47:23.360Z,2.00
2018-02-16T03:49:50.976Z,2.00
2018-02-16T03:52:19.662Z,2.00
2018-02-16T03:54:47.212Z,2.00
2018-02-16T03:57:15.223Z,2.10
2018-02-16T03:59:43.485Z,2.00
2018-02-16T04:02:12.606Z,2.10
2018-02-16T04:04:40.168Z,2.00
2018-02-16T04:07:09.248Z,2.00
2018-02-16T04:09:36.866Z,2.00
2018-02-16T04:12:05.484Z,2.00
2018-02-16T04:14:33.873Z,2.00
2018-02-16T04:17:02.328Z,2.00
2018-02-16T04:19:29.967Z,2.00
2018-02-16T04:21:59.757Z,2.00
2018-02-16T04:24:29.593Z,2.00
2018-02-16T04:26:57.452Z,2.10
2018-02-16T04:29:26.046Z,2.10
2018-02-16T04:31:54.145Z,2.10
2018-02-16T04:34:22.428Z,2.10
2018-02-16T04:36:50.061Z,2.20
2018-02-16T04:39:17.660Z,2.20
2018-02-16T04:41:45.498Z,2.20
2018-02-16T04:44:13.888Z,2.20
2018-02-16T04:46:41.952Z,2.20
2018-02-16T04:49:10.529Z,2.10
2018-02-16T04:51:39.348Z,2.10
2018-02-16T04:54:07.123Z,2.10
2018-02-16T04:56:34.904Z,2.10
2018-02-16T04:59:03.394Z,2.10
2018-02-16T05:01:30.938Z,2.10
2018-02-16T05:04:07.759Z,2.10
2018-02-16T05:06:35.956Z,2.10
2018-02-16T05:09:04.196Z,2.10
2018-02-16T05:11:34.012Z,2.10
2018-02-16T05:14:01.977Z,2.10
2018-02-16T05:16:30.860Z,2.10
2018-02-16T05:18:58.660Z,2.10
2018-02-16T05:21:26.209Z,2.10
2018-02-16T05:23:55.428Z,2.00
2018-02-16T05:26:23.775Z,2.00
2018-02-16T05:28:51.777Z,2.00
2018-02-16T05:31:20.163Z,2.00
2018-02-16T05:33:49.719Z,2.00
2018-02-16T05:36:18.619Z,2.00
2018-02-16T05:38:46.180Z,2.00
2018-02-16T05:41:14.467Z,2.00
2018-02-16T05:43:44.402Z,2.00
2018-02-16T05:46:13.421Z,2.00
2018-02-16T05:48:41.207Z,2.00
2018-02-16T05:51:08.741Z,2.10
2018-02-16T05:53:36.347Z,2.10
2018-02-16T05:56:04.582Z,2.10
2018-02-16T05:58:33.749Z,2.10
2018-02-16T06:01:01.341Z,2.10
2018-02-16T06:03:29.788Z,2.10
2018-02-16T06:05:57.612Z,2.10
2018-02-16T06:08:25.420Z,2.10
2018-02-16T06:10:52.954Z,2.10
2018-02-16T06:13:20.559Z,2.10
2018-02-16T06:15:49.567Z,2.10
2018-02-16T06:18:17.109Z,2.10
2018-02-16T06:20:46.073Z,2.10
2018-02-16T06:23:13.627Z,2.10
2018-02-16T06:25:41.666Z,2.10
2018-02-16T06:28:09.250Z,2.10
2018-02-16T06:30:36.879Z,2.10
2018-02-16T06:33:04.475Z,2.10
2018-02-16T06:35:32.437Z,2.00
2018-02-16T06:38:00.568Z,2.00
2018-02-16T06:40:28.212Z,2.00
2018-02-16T06:42:57.468Z,2.10
2018-02-16T06:45:25.458Z,2.10
2018-02-16T06:47:53.684Z,2.10
2018-02-16T06:50:21.266Z,2.10
2018-02-16T06:52:49.218Z,2.10
2018-02-16T06:55:16.794Z,2.10
2018-02-16T06:57:45.002Z,2.10
2018-02-16T07:00:13.244Z,2.10
2018-02-16T07:02:41.648Z,2.10
2018-02-16T07:05:10.070Z,2.20
2018-02-16T07:07:37.661Z,2.10
2018-02-16T07:10:05.269Z,2.10
2018-02-16T07:12:32.961Z,2.20
2018-02-16T07:15:00.605Z,2.20
2018-02-16T07:17:28.160Z,2.20
2018-02-16T07:19:55.813Z,2.30
2018-02-16T07:22:24.056Z,2.40
2018-02-16T07:24:51.999Z,2.40
2018-02-16T07:27:19.573Z,2.40
2018-02-16T07:29:47.536Z,2.50
2018-02-16T07:32:15.509Z,2.50
2018-02-16T07:34:43.506Z,2.60
2018-02-16T07:37:11.488Z,2.60
2018-02-16T07:39:39.132Z,2.60
2018-02-16T07:42:11.089Z,2.70
2018-02-16T07:44:41.004Z,2.70
2018-02-16T07:47:08.566Z,2.70
2018-02-16T07:49:36.744Z,2.80
2018-02-16T07:52:05.236Z,2.80
2018-02-16T07:54:32.813Z,2.90
2018-02-16T07:57:01.966Z,2.90
2018-02-16T07:59:29.529Z,3.00
2018-02-16T08:01:57.092Z,3.00
2018-02-16T08:04:24.647Z,3.00
2018-02-16T08:06:52.685Z,3.10
2018-02-16T08:09:20.273Z,3.10
2018-02-16T08:11:48.333Z,3.20
2018-02-16T08:14:15.841Z,3.20
2018-02-16T08:16:43.408Z,3.20
2018-02-16T08:19:10.948Z,3.20
2018-02-16T08:21:38.502Z,3.30
2018-02-16T08:24:06.303Z,3.40
2018-02-16T08:26:33.862Z,3.50
2018-02-16T08:29:01.584Z,3.50
2018-02-16T08:31:29.873Z,3.50
2018-02-16T08:33:57.510Z,3.50
2018-02-16T08:36:25.487Z,3.60
2018-02-16T08:38:53.515Z,3.70
2018-02-16T08:41:21.061Z,3.70
2018-02-16T08:43:48.628Z,3.70
2018-02-16T08:46:16.176Z,3.80
2018-02-16T08:48:43.753Z,3.80
2018-02-16T08:51:11.279Z,3.80
2018-02-16T08:53:38.816Z,3.80
2018-02-16T08:56:06.376Z,3.90
2018-02-16T08:58:33.964Z,4.00
2018-02-16T09:01:01.656Z,4.10
2018-02-16T09:03:29.375Z,4.00
2018-02-16T09:05:56.976Z,4.00
2018-02-16T09:08:24.597Z,4.10
2018-02-16T09:10:52.155Z,4.20
2018-02-16T09:13:19.688Z,4.20
2018-02-16T09:15:47.910Z,4.30
2018-02-16T09:18:15.493Z,4.40
2018-02-16T09:20:43.456Z,4.50
2018-02-16T09:23:10.997Z,4.60
2018-02-16T09:25:38.556Z,4.70
2018-02-16T09:28:06.131Z,4.60
2018-02-16T09:30:34.066Z,4.60
2018-02-16T09:33:01.606Z,4.70
2018-02-16T09:35:30.742Z,4.80
2018-02-16T09:37:58.300Z,4.80
2018-02-16T09:40:26.025Z,4.80
2018-02-16T09:42:53.598Z,4.80
2018-02-16T09:45:21.875Z,4.80
2018-02-16T09:47:49.429Z,4.80
2018-02-16T09:50:17.373Z,4.80
2018-02-16T09:52:45.315Z,4.90
2018-02-16T09:55:12.844Z,4.90
2018-02-16T09:57:40.389Z,4.90
2018-02-16T10:00:07.973Z,4.90
2018-02-16T10:02:35.562Z,5.00
2018-02-16T10:05:03.097Z,5.00
2018-02-16T10:07:30.669Z,4.80
2018-02-16T10:09:58.224Z,4.80
2018-02-16T10:12:25.780Z,4.90
2018-02-16T10:14:53.354Z,4.90
2018-02-16T10:17:20.919Z,5.00
2018-02-16T10:19:49.204Z,4.70
2018-02-16T10:22:17.179Z,4.70
2018-02-16T10:24:44.732Z,4.70
2018-02-16T10:27:13.288Z,4.80
2018-02-16T10:29:40.849Z,4.80
2018-02-16T10:32:08.407Z,4.80
2018-02-16T10:34:35.966Z,4.90
2018-02-16T10:37:04.421Z,4.90
2018-02-16T10:39:31.961Z,4.90
2018-02-16T10:41:59.525Z,4.80
2018-02-16T10:44:27.293Z,4.80
2018-02-16T10:46:54.898Z,4.90
2018-02-16T10:49:22.494Z,4.80
2018-02-16T10:51:50.024Z,5.00
2018-02-16T10:54:17.990Z,5.20
2018-02-16T10:56:45.542Z,5.20
2018-02-16T10:59:13.118Z,5.40
2018-02-16T11:01:43.979Z,5.40
2018-02-16T11:04:17.061Z,5.40
2018-02-16T11:06:49.057Z,5.50
2018-02-16T11:09:21.430Z,5.60
2018-02-16T11:11:49.829Z,5.50
2018-02-16T11:14:17.410Z,5.50
2018-02-16T11:16:44.982Z,5.40
2018-02-16T11:19:13.342Z,5.40
2018-02-16T11:21:40.889Z,5.50
2018-02-16T11:24:08.461Z,5.60
2018-02-16T11:26:36.013Z,5.70
2018-02-16T11:29:03.568Z,5.70
2018-02-16T11:31:31.169Z,5.80
2018-02-16T11:33:59.125Z,5.80
2018-02-16T11:36:27.064Z,5.90
2018-02-16T11:38:54.806Z,5.90
2018-02-16T11:41:22.363Z,5.90
2018-02-16T11:43:50.738Z,6.00
2018-02-16T11:46:18.290Z,6.00
2018-02-16T11:48:45.866Z,6.00
2018-02-16T11:51:13.411Z,6.00
2018-02-16T11:53:40.968Z,6.00
2018-02-16T11:56:08.531Z,6.00
2018-02-16T11:58:36.085Z,5.90
2018-02-16T12:01:03.659Z,5.90
2018-02-16T12:03:31.187Z,5.90
2018-02-16T12:05:58.811Z,5.90
2018-02-16T12:08:26.337Z,6.00
2018-02-16T12:10:53.880Z,6.00
2018-02-16T17:58:09.387Z,2.50
2018-02-16T18:00:37.369Z,2.40
2018-02-16T18:03:05.052Z,2.40
2018-02-16T18:05:33.202Z,2.20
2018-02-16T18:08:01.183Z,2.00
2018-02-16T18:10:28.815Z,2.00
2018-02-16T18:12:56.923Z,2.00
2018-02-16T18:15:25.768Z,2.00
2018-02-16T18:17:54.065Z,2.00
2018-02-16T18:20:21.721Z,2.00
2018-02-16T18:22:51.344Z,2.00
2018-02-16T18:25:18.988Z,1.90
2018-02-16T18:27:46.975Z,1.60
2018-02-16T18:30:14.984Z,1.60
2018-02-16T18:32:42.588Z,1.60
2018-02-16T18:35:10.547Z,1.60
2018-02-16T18:37:38.159Z,1.60
2018-02-16T18:40:05.769Z,1.60
2018-02-16T18:42:33.377Z,1.70
2018-02-16T18:45:00.976Z,1.70
2018-02-16T18:47:28.521Z,1.60
2018-02-16T18:49:56.106Z,1.70
2018-02-16T18:52:24.141Z,1.60
2018-02-16T18:54:51.708Z,1.70
2018-02-16T18:57:19.280Z,1.70
2018-02-16T18:59:46.849Z,1.60
2018-02-16T19:02:20.854Z,1.60
2018-02-16T19:04:48.853Z,1.50
2018-02-16T19:07:16.416Z,1.50
2018-02-16T19:09:44.027Z,1.40
2018-02-16T19:12:12.546Z,1.40
2018-02-16T19:14:40.502Z,1.30
2018-02-16T19:17:08.233Z,1.30
2018-02-16T19:19:36.688Z,1.30
2018-02-16T19:22:04.245Z,1.30
2018-02-16T19:24:31.816Z,1.30
2018-02-16T19:26:59.398Z,1.30
2018-02-16T19:29:27.045Z,1.30
2018-02-16T19:31:54.682Z,1.30
2018-02-16T19:34:22.420Z,1.20
2018-02-16T19:36:50.166Z,1.20
2018-02-16T19:39:18.202Z,1.30
2018-02-16T19:41:46.027Z,1.30
2018-02-16T19:44:14.562Z,1.30
2018-02-16T19:46:42.156Z,1.30
2018-02-16T19:49:09.721Z,1.30
2018-02-16T19:51:37.823Z,1.20
2018-02-16T19:54:08.503Z,1.20
2018-02-16T19:56:36.159Z,1.20
2018-02-16T19:59:03.951Z,1.20
2018-02-16T20:01:31.937Z,1.10
2018-02-16T20:03:59.820Z,1.00
2018-02-16T20:06:27.684Z,1.00
2018-02-16T20:08:56.715Z,0.90
2018-02-16T20:11:24.457Z,0.90
2018-02-16T20:13:52.294Z,0.90
2018-02-16T20:16:19.921Z,0.90
2018-02-16T20:18:49.363Z,0.90
2018-02-16T20:21:17.047Z,0.90
2018-02-16T20:23:44.625Z,0.90
2018-02-16T20:26:13.021Z,0.90
2018-02-16T20:28:41.276Z,0.80
2018-02-16T20:31:09.181Z,0.80
2018-02-16T20:33:37.255Z,0.80
2018-02-16T20:36:05.081Z,0.70
2018-02-16T20:38:32.678Z,0.70
2018-02-16T20:41:01.530Z,0.60
2018-02-16T20:43:29.163Z,0.50
2018-02-16T20:45:56.860Z,0.50
2018-02-16T20:48:24.485Z,0.50
2018-02-16T20:50:52.169Z,0.50
2018-02-16T20:53:20.519Z,0.50
2018-02-16T20:55:49.062Z,0.50
2018-02-16T20:58:17.740Z,0.40
2018-02-16T21:00:45.424Z,0.40
2018-02-16T21:03:13.280Z,0.40
2018-02-16T21:05:41.250Z,0.40
2018-02-16T21:08:08.873Z,0.40
2018-02-16T21:10:45.736Z,0.30
2018-02-16T21:13:13.338Z,0.30
2018-02-16T21:15:40.902Z,0.20
2018-02-16T21:18:08.657Z,0.10
2018-02-16T21:20:36.376Z,0.10
2018-02-16T21:23:03.985Z,0.10
2018-02-16T21:25:35.637Z,0.20
2018-02-16T21:28:04.385Z,0.10
2018-02-16T21:30:32.073Z,0.10
2018-02-16T21:33:00.610Z,0.10
2018-02-16T21:35:28.148Z,0.10
2018-02-16T21:37:55.715Z,0.10
2018-02-16T21:40:35.221Z,0.10
2018-02-16T21:43:06.534Z,0.00
2018-02-16T21:45:34.149Z,0.00
2018-02-16T21:48:02.522Z,-0.10
2018-02-16T21:50:30.181Z,-0.20
2018-02-16T21:52:57.745Z,-0.20
2018-02-16T21:55:25.366Z,-0.20
2018-02-16T21:57:53.310Z,-0.20
2018-02-16T22:00:20.916Z,-0.20
2018-02-16T22:02:48.569Z,-0.10
2018-02-16T22:05:17.220Z,-0.10
2018-02-16T22:07:45.134Z,-0.10
2018-02-16T22:10:12.727Z,-0.20
2018-02-16T22:12:40.313Z,-0.20
2018-02-16T22:15:07.940Z,-0.20
2018-02-16T22:17:35.592Z,-0.20
2018-02-16T22:20:03.215Z,-0.20
2018-02-16T22:22:31.298Z,-0.20
2018-02-16T22:24:58.856Z,-0.20
2018-02-16T22:27:26.486Z,-0.20
2018-02-16T22:29:54.050Z,-0.20
2018-02-16T22:32:21.710Z,-0.20
2018-02-16T22:34:49.835Z,-0.20
2018-02-16T22:37:17.452Z,-0.20
2018-02-16T22:39:45.023Z,-0.30
2018-02-16T22:42:12.609Z,-0.30
2018-02-16T22:44:40.184Z,-0.20
2018-02-16T22:47:07.782Z,-0.20
2018-02-16T22:49:35.377Z,-0.20
2018-02-16T22:52:02.929Z,-0.20
2018-02-16T22:54:30.991Z,-0.30
2018-02-16T22:56:59.556Z,-0.30
2018-02-16T22:59:27.120Z,-0.40
2018-02-16T23:01:54.679Z,-0.40
2018-02-16T23:04:22.327Z,-0.40
2018-02-16T23:06:49.973Z,-0.40
2018-02-16T23:09:18.529Z,-0.50
2018-02-16T23:11:46.359Z,-0.50
2018-02-16T23:14:13.968Z,-0.50
2018-02-16T23:16:42.222Z,-0.50
2018-02-16T23:19:10.697Z,-0.50
2018-02-16T23:21:38.245Z,-0.50
2018-02-16T23:24:05.857Z,-0.50
2018-02-16T23:26:33.774Z,-0.50
2018-02-16T23:29:01.375Z,-0.50
2018-02-16T23:31:33.398Z,-0.50
2018-02-16T23:34:01.206Z,-0.50
2018-02-16T23:36:29.162Z,-0.60
2018-02-16T23:38:56.713Z,-0.50
2018-02-16T23:41:24.292Z,-0.60
2018-02-16T23:43:51.842Z,-0.70
2018-02-16T23:46:19.380Z,-0.60
2018-02-16T23:48:47.123Z,-0.60
2018-02-16T23:51:15.722Z,-0.60
2018-02-16T23:53:44.298Z,-0.60
2018-02-16T23:56:11.993Z,-0.60
2018-02-16T23:58:41.145Z,-0.70
